createdAt,value
2022-09-13T00:00:00.314Z,10.20
2022-09-13T00:02:27.962Z,10.20
2022-09-13T00:04:55.583Z,10.20
2022-09-13T00:07:23.151Z,10.20
2022-09-13T00:17:13.737Z,10.20
2022-09-13T00:19:41.570Z,10.20
2022-09-13T00:29:33.203Z,10.20
2022-09-13T00:39:23.947Z,10.30
2022-09-13T00:44:53.268Z,10.30
2022-09-13T00:47:24.179Z,10.30
2022-09-13T00:49:56.047Z,10.30
2022-09-13T00:54:58.900Z,10.30
2022-09-13T00:57:27.370Z,10.30
2022-09-13T01:00:09.007Z,10.30
2022-09-13T01:02:36.773Z,10.20
2022-09-13T01:09:59.892Z,10.30
2022-09-13T01:15:04.336Z,10.30
2022-09-13T01:27:33.979Z,10.30
2022-09-13T01:35:22.896Z,10.30
2022-09-13T01:38:08.782Z,10.30
2022-09-13T01:41:06.172Z,10.30
2022-09-13T01:44:06.618Z,10.30
2022-09-13T01:46:36.682Z,10.30
2022-09-13T01:49:31.806Z,12.30
2022-09-13T01:52:07.506Z,10.30
2022-09-13T01:54:44.096Z,10.30
2022-09-13T01:57:28.890Z,10.30
2022-09-13T02:00:17.041Z,10.30
2022-09-13T02:03:04.300Z,10.30
2022-09-13T02:05:38.727Z,10.30
2022-09-13T02:08:46.327Z,10.30
2022-09-13T02:11:22.452Z,10.30
2022-09-13T02:16:35.299Z,10.30
2022-09-13T02:19:26.546Z,10.30
2022-09-13T02:21:59.335Z,10.30
2022-09-13T02:24:36.129Z,10.30
2022-09-13T02:27:12.035Z,10.30
2022-09-13T02:29:42.625Z,10.30
2022-09-13T02:32:36.048Z,10.30
2022-09-13T02:35:14.138Z,10.30
2022-09-13T02:37:45.728Z,10.30
2022-09-13T02:40:22.849Z,10.30
2022-09-13T02:43:15.006Z,10.30
2022-09-13T02:46:14.375Z,10.30
2022-09-13T02:51:50.913Z,10.40
2022-09-13T02:57:40.379Z,10.30
2022-09-13T03:05:04.964Z,10.30
2022-09-13T03:10:05.985Z,10.30
2022-09-13T03:13:06.071Z,10.30
2022-09-13T03:16:12.005Z,10.30
2022-09-13T03:19:07.534Z,10.20
2022-09-13T03:21:43.783Z,10.30
2022-09-13T03:24:11.154Z,10.20
2022-09-13T03:27:09.261Z,10.30
2022-09-13T03:29:56.325Z,10.30
2022-09-13T03:33:03.577Z,10.30
2022-09-13T03:35:41.821Z,10.30
2022-09-13T03:40:53.285Z,10.30
2022-09-13T03:46:01.544Z,10.30
2022-09-13T03:50:57.373Z,10.20
2022-09-13T03:53:28.506Z,10.30
2022-09-13T04:15:39.343Z,10.40
2022-09-13T04:28:02.168Z,10.30
2022-09-13T04:37:58.323Z,10.40
2022-09-13T04:45:21.625Z,10.50
2022-09-13T04:47:56.569Z,10.50
2022-09-13T04:50:25.797Z,10.50
2022-09-13T04:52:55.735Z,10.50
2022-09-13T04:57:54.906Z,10.50
2022-09-13T05:05:17.765Z,10.50
2022-09-13T05:07:45.542Z,10.70
2022-09-13T05:10:16.391Z,10.60
2022-09-13T05:12:47.340Z,10.60
2022-09-13T05:15:14.963Z,10.60
2022-09-13T05:17:43.332Z,11.70
2022-09-13T05:22:38.963Z,10.60
2022-09-13T05:27:34.561Z,10.70
2022-09-13T05:30:01.975Z,10.70
2022-09-13T05:32:31.037Z,10.90
2022-09-13T05:40:12.719Z,10.80
2022-09-13T05:42:40.555Z,10.80
2022-09-13T05:45:08.855Z,10.80
2022-09-13T05:47:36.419Z,10.70
2022-09-13T05:50:22.275Z,10.80
2022-09-13T05:52:58.770Z,10.70
2022-09-13T05:55:27.630Z,10.80
2022-09-13T05:57:54.921Z,10.80
2022-09-13T06:00:22.404Z,10.80
2022-09-13T06:02:50.231Z,10.90
2022-09-13T06:05:17.889Z,10.90
2022-09-13T06:07:45.493Z,11.00
2022-09-13T06:10:13.319Z,11.00
2022-09-13T06:12:40.881Z,11.00
2022-09-13T06:15:10.566Z,11.00
2022-09-13T06:17:38.147Z,11.00
2022-09-13T06:20:08.499Z,11.10
2022-09-13T06:22:36.277Z,11.10
2022-09-13T06:25:06.200Z,11.20
2022-09-13T06:27:33.455Z,11.10
2022-09-13T06:30:01.058Z,11.30
2022-09-13T06:32:28.468Z,11.40
2022-09-13T06:34:56.128Z,11.50
2022-09-13T06:37:24.113Z,11.20
2022-09-13T06:39:51.733Z,11.30
2022-09-13T06:42:19.429Z,11.20
2022-09-13T06:44:48.561Z,11.20
2022-09-13T06:47:16.269Z,11.30
2022-09-13T06:49:43.497Z,11.40
2022-09-13T06:52:11.267Z,11.40
2022-09-13T06:54:39.568Z,11.50
2022-09-13T06:57:07.179Z,11.80
2022-09-13T06:59:35.116Z,11.60
2022-09-13T07:02:02.738Z,11.70
2022-09-13T07:04:32.074Z,11.60
2022-09-13T07:07:00.208Z,11.60
2022-09-13T07:09:27.960Z,11.60
2022-09-13T07:11:56.493Z,11.90
2022-09-13T07:14:26.479Z,11.70
2022-09-13T07:16:54.250Z,11.80
2022-09-13T07:19:27.072Z,11.80
2022-09-13T07:21:56.301Z,11.90
2022-09-13T07:24:24.527Z,11.90
2022-09-13T07:26:51.875Z,11.90
2022-09-13T07:29:23.880Z,11.90
2022-09-13T07:31:53.303Z,11.80
2022-09-13T07:34:23.536Z,12.00
2022-09-13T07:36:52.735Z,10.60
2022-09-13T07:39:22.703Z,12.00
2022-09-13T07:41:54.708Z,12.00
2022-09-13T07:44:23.157Z,12.10
2022-09-13T07:46:52.933Z,12.10
2022-09-13T07:49:29.242Z,12.60
2022-09-13T07:51:56.839Z,12.10
2022-09-13T07:54:24.271Z,12.10
2022-09-13T07:56:56.531Z,11.70
2022-09-13T07:59:27.011Z,11.10
2022-09-13T08:02:12.902Z,12.20
2022-09-13T08:04:40.818Z,12.00
2022-09-13T08:07:08.832Z,12.00
2022-09-13T08:09:36.358Z,12.10
2022-09-13T08:12:04.109Z,12.20
2022-09-13T08:14:31.589Z,12.40
2022-09-13T08:16:59.124Z,12.40
2022-09-13T08:19:27.192Z,12.80
2022-09-13T08:21:54.781Z,12.80
2022-09-13T08:24:22.512Z,12.90
2022-09-13T08:26:52.208Z,13.10
2022-09-13T08:29:19.993Z,13.20
2022-09-13T08:34:16.656Z,13.60
2022-09-13T08:36:44.610Z,13.70
2022-09-13T08:39:14.066Z,13.70
2022-09-13T08:41:46.336Z,13.80
2022-09-13T08:44:30.233Z,13.90
2022-09-13T08:47:31.896Z,13.70
2022-09-13T08:50:10.117Z,13.70
2022-09-13T08:52:49.211Z,13.70
2022-09-13T08:55:35.214Z,13.80
2022-09-13T08:58:28.160Z,13.80
2022-09-13T09:01:06.775Z,13.90
2022-09-13T09:03:52.561Z,13.90
2022-09-13T09:06:22.806Z,13.90
2022-09-13T09:08:58.225Z,13.90
2022-09-13T09:11:35.698Z,13.90
2022-09-13T09:14:26.014Z,14.00
2022-09-13T09:17:04.538Z,14.10
2022-09-13T09:19:47.988Z,14.10
2022-09-13T09:22:22.121Z,14.00
2022-09-13T09:24:54.502Z,14.00
2022-09-13T09:27:22.644Z,14.10
2022-09-13T09:29:55.471Z,14.00
2022-09-13T09:32:37.515Z,14.00
2022-09-13T09:35:23.688Z,14.00
2022-09-13T09:38:21.944Z,13.90
2022-09-13T09:40:49.814Z,13.90
2022-09-13T09:43:31.276Z,13.80
2022-09-13T09:45:59.632Z,13.70
2022-09-13T09:48:35.391Z,13.60
2022-09-13T09:53:37.275Z,13.50
2022-09-13T09:56:23.904Z,13.40
2022-09-13T09:58:53.307Z,13.30
2022-09-13T10:01:27.520Z,13.20
2022-09-13T10:04:12.837Z,13.40
2022-09-13T10:06:42.362Z,13.10
2022-09-13T10:09:21.649Z,13.00
2022-09-13T10:11:59.253Z,12.90
2022-09-13T10:14:33.258Z,12.90
2022-09-13T10:17:05.543Z,13.00
2022-09-13T10:19:33.731Z,12.80
2022-09-13T10:22:10.443Z,12.70
2022-09-13T10:24:38.106Z,12.70
2022-09-13T10:27:17.386Z,12.70
2022-09-13T10:29:51.059Z,12.50
2022-09-13T10:34:49.428Z,12.50
2022-09-13T10:37:24.887Z,12.50
2022-09-13T10:40:04.053Z,13.20
2022-09-13T10:42:31.996Z,12.80
2022-09-13T10:48:03.908Z,13.10
2022-09-13T10:50:31.646Z,12.60
2022-09-13T10:53:00.260Z,12.70
2022-09-13T10:55:35.279Z,12.70
2022-09-13T10:58:02.658Z,14.20
2022-09-13T11:00:39.737Z,12.70
2022-09-13T11:03:41.031Z,12.70
2022-09-13T11:06:27.365Z,13.30
2022-09-13T11:09:07.402Z,12.80
2022-09-13T11:12:00.385Z,12.80
2022-09-13T11:17:27.135Z,12.90
2022-09-13T11:20:19.613Z,13.10
2022-09-13T11:23:23.877Z,13.20
2022-09-13T11:26:05.950Z,13.30
2022-09-13T11:28:40.366Z,13.30
2022-09-13T11:31:28.364Z,13.40
2022-09-13T11:34:22.428Z,13.50
2022-09-13T11:37:43.403Z,13.60
2022-09-13T11:40:35.238Z,13.70
2022-09-13T11:46:11.598Z,13.90
2022-09-13T11:48:44.839Z,13.80
2022-09-13T11:51:51.263Z,13.80
2022-09-13T11:54:37.466Z,14.30
2022-09-13T11:57:11.533Z,13.80
2022-09-13T11:59:57.713Z,13.80
2022-09-13T12:02:43.995Z,14.00
2022-09-13T12:05:23.866Z,13.80
2022-09-13T12:08:13.983Z,13.50
2022-09-13T12:11:16.115Z,14.00
2022-09-13T12:13:54.217Z,13.80
2022-09-13T12:16:41.963Z,13.90
2022-09-13T12:19:23.728Z,13.90
2022-09-13T12:24:29.956Z,13.90
2022-09-13T12:29:32.080Z,13.80
2022-09-13T12:32:07.204Z,13.80
2022-09-13T12:34:59.046Z,13.90
2022-09-13T12:37:58.954Z,13.80
2022-09-13T12:40:55.103Z,12.10
2022-09-13T12:43:39.913Z,13.70
2022-09-13T12:46:44.886Z,13.90
2022-09-13T12:49:46.903Z,13.70
2022-09-13T12:52:49.956Z,13.70
2022-09-13T12:55:45.510Z,13.70
2022-09-13T12:58:26.593Z,13.60
2022-09-13T13:01:16.117Z,13.60
2022-09-13T13:03:54.847Z,13.60
2022-09-13T13:06:26.250Z,15.10
2022-09-13T13:08:56.440Z,13.70
2022-09-13T13:11:31.365Z,13.70
2022-09-13T13:14:02.421Z,13.70
2022-09-13T13:16:34.307Z,13.50
2022-09-13T13:19:06.573Z,13.50
2022-09-13T13:21:36.667Z,13.70
2022-09-13T13:24:30.172Z,13.30
2022-09-13T13:26:59.488Z,13.40
2022-09-13T13:29:32.023Z,13.30
2022-09-13T13:34:41.552Z,13.30
2022-09-13T13:37:08.923Z,13.20
2022-09-13T13:39:36.369Z,13.10
2022-09-13T13:42:31.658Z,13.60
2022-09-13T13:45:02.093Z,13.00
2022-09-13T13:47:29.403Z,12.10
2022-09-13T13:50:17.403Z,13.00
2022-09-13T13:52:47.860Z,12.80
2022-09-13T13:55:30.840Z,12.90
2022-09-13T13:58:23.121Z,12.80
2022-09-13T14:00:53.395Z,12.90
2022-09-13T14:03:49.646Z,12.90
2022-09-13T14:06:32.355Z,12.80
2022-09-13T14:09:05.711Z,12.80
2022-09-13T14:11:54.399Z,12.70
2022-09-13T14:14:48.027Z,12.70
2022-09-13T14:17:34.485Z,12.70
2022-09-13T14:20:08.598Z,12.70
2022-09-13T14:22:36.767Z,12.60
2022-09-13T14:25:23.875Z,12.80
2022-09-13T14:27:56.978Z,12.60
2022-09-13T14:30:35.721Z,12.60
2022-09-13T14:33:06.102Z,12.50
2022-09-13T14:35:41.013Z,12.50
2022-09-13T14:38:18.865Z,12.10
2022-09-13T14:40:51.202Z,12.40
2022-09-13T14:43:22.889Z,12.40
2022-09-13T14:46:14.344Z,12.40
2022-09-13T14:48:53.854Z,12.30
2022-09-13T14:51:30.188Z,12.40
2022-09-13T14:54:21.800Z,12.50
2022-09-13T14:56:53.533Z,12.50
2022-09-13T14:59:29.597Z,12.50
2022-09-13T15:02:02.702Z,12.40
2022-09-13T15:04:30.993Z,12.60
2022-09-13T15:07:10.498Z,12.50
2022-09-13T15:09:38.679Z,12.50
2022-09-13T15:12:21.015Z,12.50
2022-09-13T15:14:48.681Z,12.50
2022-09-13T15:17:17.117Z,12.60
2022-09-13T15:19:52.862Z,12.50
2022-09-13T15:22:26.356Z,12.40
2022-09-13T15:24:56.399Z,12.40
2022-09-13T15:27:28.180Z,12.40
2022-09-13T15:29:59.272Z,12.40
2022-09-13T15:32:39.832Z,12.40
2022-09-13T15:35:30.244Z,12.30
2022-09-13T15:38:10.886Z,12.30
2022-09-13T15:40:47.467Z,12.30
2022-09-13T15:43:15.129Z,12.40
2022-09-13T15:45:42.971Z,12.30
2022-09-13T15:48:25.107Z,12.30
2022-09-13T15:51:05.193Z,12.10
2022-09-13T15:53:32.984Z,12.20
2022-09-13T15:56:01.887Z,12.40
2022-09-13T15:58:30.256Z,12.20
2022-09-13T16:00:57.987Z,12.20
2022-09-13T16:03:25.466Z,12.10
2022-09-13T16:05:53.998Z,12.10
2022-09-13T16:08:21.511Z,12.10
2022-09-13T16:10:48.977Z,12.10
2022-09-13T16:13:16.534Z,12.00
2022-09-13T16:15:46.398Z,12.00
2022-09-13T16:18:16.847Z,11.90
2022-09-13T16:20:45.011Z,12.00
2022-09-13T16:23:12.715Z,12.00
2022-09-13T16:25:40.373Z,12.00
2022-09-13T16:28:08.809Z,12.00
2022-09-13T16:30:36.924Z,12.00
2022-09-13T16:33:04.565Z,11.90
2022-09-13T16:35:33.009Z,11.90
2022-09-13T16:38:00.444Z,11.90
2022-09-13T16:40:28.222Z,11.90
2022-09-13T16:42:55.976Z,12.00
2022-09-13T16:45:23.830Z,11.90
2022-09-13T16:47:51.574Z,11.70
2022-09-13T16:50:19.867Z,11.90
2022-09-13T16:52:47.450Z,11.90
2022-09-13T16:55:15.008Z,11.70
2022-09-13T16:57:44.329Z,11.80
2022-09-13T17:00:12.632Z,11.80
2022-09-13T17:02:40.262Z,11.70
2022-09-13T17:05:08.579Z,11.80
2022-09-13T17:07:37.215Z,11.80
2022-09-13T17:10:07.129Z,11.80
2022-09-13T17:12:35.122Z,11.80
2022-09-13T17:15:02.440Z,11.80
2022-09-13T17:17:36.100Z,11.80
2022-09-13T17:20:10.650Z,11.80
2022-09-13T17:22:38.426Z,11.80
2022-09-13T17:25:07.964Z,11.70
2022-09-13T17:27:35.791Z,11.80
2022-09-13T17:30:05.157Z,11.70
2022-09-13T17:32:32.809Z,11.80
2022-09-13T17:35:00.411Z,11.70
2022-09-13T17:37:28.035Z,11.70
2022-09-13T17:39:55.524Z,11.80
2022-09-13T17:42:23.573Z,11.70
2022-09-13T17:44:51.250Z,11.70
2022-09-13T17:47:18.663Z,11.70
2022-09-13T17:49:47.797Z,11.70
2022-09-13T17:52:15.431Z,11.70
2022-09-13T17:54:42.990Z,11.70
2022-09-13T17:57:12.049Z,11.70
2022-09-13T18:02:08.779Z,11.70
2022-09-13T18:04:36.382Z,11.60
2022-09-13T18:07:03.839Z,11.60
2022-09-13T18:09:31.301Z,11.60
2022-09-13T18:11:58.757Z,11.60
2022-09-13T18:14:27.756Z,11.60
2022-09-13T18:16:58.011Z,11.60
2022-09-13T18:19:44.925Z,11.50
2022-09-13T18:22:14.634Z,11.50
2022-09-13T18:24:43.319Z,11.50
2022-09-13T18:27:10.779Z,11.60
2022-09-13T18:29:38.251Z,11.50
2022-09-13T18:32:05.915Z,11.40
2022-09-13T18:34:33.531Z,11.40
2022-09-13T18:37:01.016Z,11.40
2022-09-13T18:39:28.248Z,11.40
2022-09-13T18:41:55.831Z,11.30
2022-09-13T18:44:23.189Z,11.30
2022-09-13T18:46:53.042Z,11.30
2022-09-13T18:49:20.567Z,11.30
2022-09-13T18:51:49.540Z,11.30
2022-09-13T18:54:18.621Z,12.00
2022-09-13T18:56:47.363Z,11.20
2022-09-13T18:59:14.972Z,11.20
2022-09-13T19:01:43.940Z,11.20
2022-09-13T19:04:12.465Z,11.20
2022-09-13T19:06:46.409Z,11.20
2022-09-13T19:09:14.618Z,11.20
2022-09-13T19:11:48.501Z,11.20
2022-09-13T19:14:27.846Z,11.10
2022-09-13T19:17:00.985Z,11.10
2022-09-13T19:19:30.391Z,11.10
2022-09-13T19:21:57.768Z,11.10
2022-09-13T19:24:25.809Z,10.80
2022-09-13T19:26:53.812Z,11.10
2022-09-13T19:29:22.960Z,11.10
2022-09-13T19:31:52.638Z,11.10
2022-09-13T19:34:22.066Z,11.10
2022-09-13T19:36:52.574Z,11.10
2022-09-13T19:39:20.080Z,11.10
2022-09-13T19:41:47.834Z,11.10
2022-09-13T19:44:15.584Z,11.00
2022-09-13T19:46:43.706Z,11.00
2022-09-13T19:49:16.122Z,11.00
2022-09-13T19:51:47.591Z,11.00
2022-09-13T19:54:19.177Z,11.00
2022-09-13T19:56:46.791Z,11.00
2022-09-13T19:59:16.273Z,11.00
2022-09-13T20:01:45.172Z,11.00
2022-09-13T20:04:23.755Z,11.00
2022-09-13T20:06:52.109Z,11.00
2022-09-13T20:09:21.111Z,11.00
2022-09-13T20:11:49.059Z,11.00
2022-09-13T20:14:18.931Z,11.00
2022-09-13T20:16:47.745Z,10.90
2022-09-13T20:22:10.978Z,10.90
2022-09-13T20:27:06.321Z,10.70
2022-09-13T20:29:33.623Z,10.90
2022-09-13T20:32:02.308Z,10.90
2022-09-13T20:34:29.630Z,10.80
2022-09-13T20:36:57.330Z,10.80
2022-09-13T20:41:54.023Z,10.80
2022-09-13T20:44:21.551Z,10.80
2022-09-13T20:46:49.143Z,10.80
2022-09-13T20:49:16.861Z,10.80
2022-09-13T20:51:46.068Z,10.80
2022-09-13T20:54:13.800Z,10.80
2022-09-13T20:56:41.283Z,10.80
2022-09-13T20:59:08.935Z,10.80
2022-09-13T21:01:36.769Z,10.80
2022-09-13T21:04:04.562Z,10.80
2022-09-13T21:06:37.173Z,10.80
2022-09-13T21:09:07.942Z,10.80
2022-09-13T21:11:36.936Z,10.90
2022-09-13T21:14:06.609Z,10.90
2022-09-13T21:16:36.669Z,10.80
2022-09-13T21:19:04.641Z,10.80
2022-09-13T21:21:34.624Z,10.90
2022-09-13T21:24:08.939Z,10.80
2022-09-13T21:26:37.609Z,10.80
2022-09-13T21:29:05.317Z,10.90
2022-09-13T21:31:34.110Z,10.80
2022-09-13T21:34:04.292Z,10.80
2022-09-13T21:36:32.207Z,10.80
2022-09-13T21:41:28.695Z,10.80
2022-09-13T21:43:56.536Z,10.80
2022-09-13T21:46:29.226Z,10.80
2022-09-13T21:48:58.506Z,10.80
2022-09-13T21:51:33.675Z,10.80
2022-09-13T21:54:02.258Z,10.80
2022-09-13T21:56:31.725Z,10.90
2022-09-13T21:59:04.212Z,10.80
2022-09-13T22:01:34.072Z,10.90
2022-09-13T22:04:01.780Z,10.90
2022-09-13T22:06:33.555Z,10.90
2022-09-13T22:09:07.483Z,10.90
2022-09-13T22:11:38.711Z,10.90
2022-09-13T22:14:07.302Z,10.90
2022-09-13T22:16:40.509Z,10.90
2022-09-13T22:19:15.180Z,10.90
2022-09-13T22:21:44.911Z,10.90
2022-09-13T22:24:20.514Z,10.80
2022-09-13T22:26:49.500Z,10.90
2022-09-13T22:29:17.633Z,10.90
2022-09-13T22:31:48.343Z,10.90
2022-09-13T22:34:18.463Z,10.90
2022-09-13T22:36:46.126Z,10.90
2022-09-13T22:39:14.862Z,10.90
2022-09-13T22:41:42.697Z,10.90
2022-09-13T22:44:10.134Z,10.90
2022-09-13T22:46:40.934Z,10.90
2022-09-13T22:49:11.657Z,10.90
2022-09-13T22:51:39.072Z,10.90
2022-09-13T22:54:07.952Z,10.90
2022-09-13T22:56:36.569Z,10.90
2022-09-13T22:59:11.793Z,10.90
2022-09-13T23:01:39.625Z,10.90
2022-09-13T23:04:07.388Z,10.80
2022-09-13T23:06:35.509Z,10.80
2022-09-13T23:09:06.554Z,10.80
2022-09-13T23:11:38.678Z,10.80
2022-09-13T23:14:09.949Z,10.80
2022-09-13T23:16:40.138Z,10.90
2022-09-13T23:21:37.199Z,10.80
2022-09-13T23:24:06.528Z,10.80
2022-09-13T23:26:34.776Z,10.80
2022-09-13T23:29:06.577Z,10.80
2022-09-13T23:31:36.199Z,10.80
2022-09-13T23:34:06.505Z,10.80
2022-09-13T23:36:37.052Z,10.80
2022-09-13T23:39:06.881Z,10.80
2022-09-13T23:41:34.900Z,10.80
2022-09-13T23:44:03.155Z,10.80
2022-09-13T23:46:31.030Z,10.70
2022-09-13T23:48:58.165Z,10.70
2022-09-13T23:51:29.543Z,10.70
2022-09-13T23:53:57.948Z,10.70
2022-09-13T23:56:26.521Z,10.70
2022-09-13T23:58:55.954Z,10.70
